Time;durP1;ratioP1;P1;durP2;ratioP2;P2;SDS_P1;SDS_P2;PMS_P1;PMS_P2;Temp;Humidity;BMP_temperature;BMP_pressure;BME280_temperature;BME280_humidity;BME280_pressure;Samples;Min_cycle;Max_cycle;Signal;HPM_P1;HPM_P2
2024/01/30 00:01:04;;;;;;;34.10;17.33;;;4.10;99.90;;;4.09;93.71;101977.22;4828937;28;24440;-68
2024/01/30 00:03:27;;;;;;;33.45;18.10;;;4.10;99.90;;;4.12;94.04;101970.25;4821218;28;20790;-72
2024/01/30 00:05:49;;;;;;;33.08;17.35;;;4.20;99.90;;;4.12;93.79;101967.66;4832689;28;24449;-68
2024/01/30 00:08:11;;;;;;;33.28;17.15;;;4.20;99.90;;;4.12;93.74;101972.81;4833477;28;20777;-68
2024/01/30 00:10:33;;;;;;;32.03;17.73;;;4.20;99.90;;;4.10;94.01;101966.84;4825585;28;25262;-68
2024/01/30 00:12:55;;;;;;;31.83;17.30;;;4.20;99.90;;;4.11;93.74;101965.94;4831925;28;24444;-68
2024/01/30 00:15:18;;;;;;;32.28;18.00;;;4.20;99.90;;;4.06;94.34;101969.53;4833780;28;24846;-68
2024/01/30 00:17:40;;;;;;;30.65;17.42;;;4.10;99.90;;;4.02;93.57;101968.78;4829805;28;24544;-69
2024/01/30 00:20:05;;;;;;;30.92;17.10;;;4.10;99.90;;;3.99;94.09;101974.00;4830178;28;24499;-68
2024/01/30 00:22:30;;;;;;;30.67;17.27;;;4.10;99.90;;;3.96;94.34;101962.91;4835117;28;20869;-68
2024/01/30 00:24:52;;;;;;;29.58;17.23;;;4.00;99.90;;;3.91;93.91;101969.03;4834281;28;24460;-67
2024/01/30 00:27:14;;;;;;;29.05;16.40;;;4.00;99.90;;;3.91;94.27;101968.16;4827606;28;24532;-68
2024/01/30 00:29:36;;;;;;;29.75;16.60;;;4.00;99.90;;;3.89;94.45;101975.97;4832546;28;24514;-68
2024/01/30 00:31:58;;;;;;;30.95;15.93;;;4.00;99.90;;;3.86;94.59;101965.69;4834374;28;24486;-68
2024/01/30 00:34:20;;;;;;;30.95;16.65;;;4.00;99.90;;;3.87;94.59;101974.28;4826215;28;25009;-70
2024/01/30 00:36:41;;;;;;;29.02;16.45;;;4.00;99.90;;;3.83;94.32;101980.41;4827942;28;24447;-68
2024/01/30 00:39:08;;;;;;;30.00;16.10;;;3.90;99.90;;;3.79;94.15;101973.63;4834763;28;24460;-68
2024/01/30 00:41:30;;;;;;;27.33;15.75;;;3.90;99.90;;;3.76;94.18;101973.69;4829823;28;24503;-69
2024/01/30 00:43:52;;;;;;;30.40;15.75;;;3.90;99.90;;;3.76;94.03;101978.84;4832788;28;25032;-70
2024/01/30 00:46:14;;;;;;;29.38;15.98;;;3.80;99.90;;;3.74;94.51;101971.16;4837679;28;24543;-69
2024/01/30 00:48:36;;;;;;;28.98;14.90;;;3.90;99.90;;;3.78;94.82;101971.91;4839204;28;24487;-70
2024/01/30 00:50:58;;;;;;;25.38;14.68;;;3.90;99.90;;;3.80;94.97;101970.16;4837535;28;24464;-68
2024/01/30 00:53:20;;;;;;;26.88;14.43;;;3.90;99.90;;;3.81;95.15;101969.28;4831680;28;24447;-66
2024/01/30 00:55:42;;;;;;;26.25;14.65;;;3.90;99.90;;;3.88;96.02;101968.22;4837668;28;24918;-69
2024/01/30 00:58:05;;;;;;;26.80;14.60;;;4.00;99.90;;;3.93;96.40;101971.56;4826534;28;24548;-69
2024/01/30 01:00:29;;;;;;;24.05;13.40;;;4.00;99.90;;;3.99;96.55;101971.41;4833030;28;24786;-68
2024/01/30 01:02:51;;;;;;;23.60;13.77;;;4.10;99.90;;;4.02;96.70;101966.19;4825906;28;25052;-67
2024/01/30 01:05:13;;;;;;;24.38;13.30;;;4.10;99.90;;;4.07;96.93;101966.91;4832260;28;24527;-68
2024/01/30 01:07:35;;;;;;;20.95;12.70;;;4.10;99.90;;;4.10;96.82;101964.28;4831402;28;24559;-69
2024/01/30 01:09:57;;;;;;;22.33;12.88;;;4.20;99.90;;;4.13;97.12;101974.50;4829803;28;24994;-68
2024/01/30 01:12:19;;;;;;;20.67;12.02;;;4.20;99.90;;;4.15;96.75;101971.91;4824767;28;24452;-68
2024/01/30 01:14:41;;;;;;;21.73;13.10;;;4.20;99.90;;;4.19;96.80;101973.53;4836031;28;24424;-69
2024/01/30 01:17:03;;;;;;;21.73;12.80;;;4.30;99.90;;;4.18;96.85;101970.09;4838059;28;20773;-68
2024/01/30 01:19:25;;;;;;;22.65;12.65;;;4.30;99.90;;;4.17;96.27;101970.13;4830283;28;24925;-67
2024/01/30 01:21:47;;;;;;;22.65;12.43;;;4.30;99.90;;;4.17;96.04;101964.97;4834185;28;24463;-69
2024/01/30 01:24:09;;;;;;;23.33;12.80;;;4.20;99.90;;;4.12;95.36;101965.06;4828315;28;24539;-68
2024/01/30 01:26:31;;;;;;;22.48;13.07;;;4.20;99.90;;;4.09;95.73;101967.72;4833297;28;24527;-68
2024/01/30 01:28:53;;;;;;;19.63;11.50;;;4.20;99.90;;;4.10;95.55;101976.31;4825522;28;24829;-69
2024/01/30 01:31:15;;;;;;;21.30;11.57;;;4.20;99.90;;;4.09;95.60;101978.06;4830289;28;20905;-68
2024/01/30 01:33:37;;;;;;;21.27;11.88;;;4.20;99.90;;;4.11;95.24;101970.28;4832334;28;24464;-69
2024/01/30 01:36:02;;;;;;;20.50;12.00;;;4.20;99.90;;;4.10;95.81;101973.75;4837316;28;24977;-68
2024/01/30 01:38:24;;;;;;;20.58;12.20;;;4.20;99.90;;;4.07;95.32;101971.25;4828763;28;24534;-67
2024/01/30 01:40:46;;;;;;;22.95;12.68;;;4.20;99.90;;;4.07;95.48;101968.66;4837523;28;20770;-69
2024/01/30 01:43:08;;;;;;;17.88;11.38;;;4.20;99.90;;;4.04;95.17;101959.25;4833373;28;24524;-68
2024/01/30 01:45:30;;;;;;;20.88;10.90;;;4.10;99.90;;;4.06;95.12;101966.97;4835984;28;24523;-68
2024/01/30 01:47:52;;;;;;;18.77;10.83;;;4.10;99.90;;;4.10;95.66;101969.44;4835286;28;24539;-68
2024/01/30 01:50:19;;;;;;;17.65;10.68;;;4.20;99.90;;;4.14;95.02;101965.03;4819669;28;24460;-69
2024/01/30 01:52:41;;;;;;;16.98;10.10;;;4.20;99.90;;;4.14;94.91;101965.88;4817921;28;21277;-67
2024/01/30 01:55:04;;;;;;;16.50;9.98;;;4.20;99.90;;;4.13;94.95;101959.00;4837456;28;24829;-68
2024/01/30 01:57:26;;;;;;;16.40;10.13;;;4.20;99.90;;;4.14;95.30;101963.31;4831445;28;20791;-66
2024/01/30 01:59:48;;;;;;;15.10;9.15;;;4.20;99.90;;;4.16;95.18;101964.13;4819618;28;24448;-68
2024/01/30 02:02:12;;;;;;;15.93;9.43;;;4.20;99.90;;;4.16;95.07;101963.25;4830028;28;24532;-67
2024/01/30 02:04:34;;;;;;;16.90;9.30;;;4.30;99.90;;;4.16;95.03;101968.41;4825729;28;21328;-68
2024/01/30 02:06:56;;;;;;;13.88;9.32;;;4.30;99.90;;;4.16;94.91;101958.94;4830837;28;20805;-69
2024/01/30 02:09:19;;;;;;;14.68;8.60;;;4.30;99.90;;;4.14;95.23;101965.03;4829389;28;24459;-68
2024/01/30 02:11:41;;;;;;;13.57;8.65;;;4.20;99.90;;;4.17;95.36;101962.38;4830242;28;25008;-68
2024/01/30 02:14:04;;;;;;;17.42;9.93;;;4.20;99.90;;;4.19;95.04;101965.78;4829663;28;24460;-69
2024/01/30 02:16:27;;;;;;;13.40;8.30;;;4.30;99.90;;;4.19;94.65;101958.88;4827296;28;24536;-68
2024/01/30 02:18:49;;;;;;;14.63;8.90;;;4.30;99.90;;;4.19;94.43;101958.88;4834596;28;20878;-69
2024/01/30 02:21:12;;;;;;;15.88;9.43;;;4.30;99.90;;;4.17;94.69;101964.97;4830021;28;24456;-68
2024/01/30 02:23:34;;;;;;;15.77;10.18;;;4.30;99.90;;;4.17;94.36;101960.66;4836020;28;24434;-68
2024/01/30 02:26:00;;;;;;;16.83;10.70;;;4.30;99.90;;;4.17;93.89;101959.81;4832966;28;24424;-69
2024/01/30 02:28:22;;;;;;;16.95;10.10;;;4.30;99.90;;;4.12;93.62;101967.66;4828913;28;20874;-69
2024/01/30 02:30:44;;;;;;;20.83;11.37;;;4.30;99.90;;;4.10;93.71;101961.69;4826806;28;24436;-67
2024/01/30 02:33:06;;;;;;;15.93;10.60;;;4.20;99.90;;;4.08;93.47;101962.59;4834130;28;24520;-68
2024/01/30 02:35:28;;;;;;;20.85;11.90;;;4.20;99.90;;;4.03;93.08;101967.88;4827981;28;24651;-70
2024/01/30 02:37:50;;;;;;;21.30;11.20;;;4.10;99.90;;;4.00;92.89;101967.09;4836709;28;24433;-68
2024/01/30 02:40:12;;;;;;;20.40;11.27;;;4.10;99.90;;;3.94;93.22;101958.59;4834635;28;24555;-68
2024/01/30 02:42:34;;;;;;;20.23;11.90;;;4.10;99.90;;;3.91;93.01;101963.00;4835098;28;20793;-70
2024/01/30 02:44:56;;;;;;;18.52;11.40;;;4.00;99.90;;;3.89;92.96;101959.63;4820114;28;24532;-68
2024/01/30 02:47:18;;;;;;;23.05;11.05;;;4.00;99.90;;;3.83;93.10;101959.75;4825595;28;24898;-68
2024/01/30 02:49:40;;;;;;;19.80;11.60;;;4.00;99.90;;;3.78;92.74;101964.16;4835916;28;25036;-69
2024/01/30 02:52:02;;;;;;;18.75;11.90;;;3.90;99.90;;;3.74;93.19;101957.38;4833300;28;24472;-68
2024/01/30 02:54:24;;;;;;;20.15;11.23;;;3.90;99.90;;;3.69;93.61;101956.63;4834866;28;24435;-68
2024/01/30 02:56:48;;;;;;;17.88;10.20;;;3.80;99.90;;;3.67;93.47;101960.97;4836607;28;20774;-69
2024/01/30 02:59:10;;;;;;;20.35;11.57;;;3.80;99.90;;;3.65;93.50;101962.75;4831620;28;24467;-67
2024/01/30 03:01:32;;;;;;;18.15;10.82;;;3.80;99.90;;;3.61;93.34;101955.97;4837501;28;24483;-69
2024/01/30 03:03:54;;;;;;;21.52;12.05;;;3.80;99.90;;;3.58;93.29;101961.19;4830643;28;24448;-68
2024/01/30 03:06:17;;;;;;;20.20;11.33;;;3.70;99.90;;;3.57;93.45;101962.94;4835755;28;24580;-68
2024/01/30 03:08:39;;;;;;;22.05;12.50;;;3.70;99.90;;;3.57;93.86;101956.91;4818062;28;24483;-69
2024/01/30 03:11:01;;;;;;;18.33;11.20;;;3.70;99.90;;;3.56;93.80;101955.19;4831612;28;24455;-68
2024/01/30 03:13:24;;;;;;;20.35;12.77;;;3.70;99.90;;;3.56;93.38;101957.78;4833504;28;25061;-70
2024/01/30 03:15:46;;;;;;;21.85;11.55;;;3.70;99.90;;;3.55;93.17;101945.78;4828826;28;24448;-70
2024/01/30 03:18:08;;;;;;;21.15;12.35;;;3.60;99.90;;;3.52;93.48;101957.00;4836040;28;24548;-70
2024/01/30 03:20:31;;;;;;;22.08;12.48;;;3.60;99.90;;;3.52;93.75;101949.28;4835024;28;24455;-69
2024/01/30 03:22:55;;;;;;;20.90;12.07;;;3.60;99.90;;;3.48;93.50;101949.38;4836919;28;25054;-67
2024/01/30 03:25:17;;;;;;;23.02;12.32;;;3.60;99.90;;;3.44;92.95;101960.63;4834221;28;20841;-68
2024/01/30 03:27:39;;;;;;;20.17;12.40;;;3.60;99.90;;;3.37;93.23;101943.59;4835867;28;24432;-68
2024/01/30 03:30:01;;;;;;;20.52;12.32;;;3.50;99.90;;;3.36;93.66;101958.25;4829333;28;24452;-69
2024/01/30 03:32:23;;;;;;;19.60;12.10;;;3.50;99.90;;;3.34;93.12;101954.84;4818743;28;24902;-68
2024/01/30 03:34:45;;;;;;;20.25;11.30;;;3.50;99.90;;;3.33;93.51;101954.84;4825436;28;24479;-68
2024/01/30 03:37:07;;;;;;;20.58;11.50;;;3.50;99.90;;;3.30;93.50;101955.75;4822469;28;24817;-68
2024/01/30 03:39:30;;;;;;;19.10;11.65;;;3.40;99.90;;;3.29;93.48;101953.22;4832932;28;24456;-68
2024/01/30 03:41:52;;;;;;;18.47;10.80;;;3.40;99.90;;;3.29;93.82;101966.13;4834400;28;24431;-68
2024/01/30 03:44:14;;;;;;;19.50;11.07;;;3.40;99.90;;;3.26;94.19;101959.28;4827358;28;24451;-68
2024/01/30 03:46:36;;;;;;;18.23;11.38;;;3.40;99.90;;;3.29;94.12;101956.66;4827117;28;24460;-73
2024/01/30 03:48:58;;;;;;;21.45;11.10;;;3.40;99.90;;;3.28;94.34;101954.94;4825338;28;24882;-71
2024/01/30 03:51:20;;;;;;;21.67;12.25;;;3.40;99.90;;;3.27;94.63;101955.84;4832285;28;25030;-69
2024/01/30 03:53:43;;;;;;;20.50;11.90;;;3.40;99.90;;;3.27;94.66;101960.16;4834413;28;24527;-68
2024/01/30 03:56:05;;;;;;;22.90;11.77;;;3.40;99.90;;;3.25;94.14;101959.34;4812127;28;24519;-68
2024/01/30 03:58:27;;;;;;;19.30;11.52;;;3.40;99.90;;;3.25;94.12;101961.91;4835114;28;25104;-68
2024/01/30 04:00:49;;;;;;;20.95;11.90;;;3.40;99.90;;;3.24;93.95;101957.66;4831950;28;24575;-67
2024/01/30 04:03:11;;;;;;;19.95;11.93;;;3.40;99.90;;;3.23;94.39;101955.94;4829968;28;24444;-67
2024/01/30 04:05:34;;;;;;;20.75;11.98;;;3.40;99.90;;;3.19;94.48;101955.16;4827701;28;24559;-68
2024/01/30 04:07:56;;;;;;;19.80;11.57;;;3.30;99.90;;;3.17;94.33;101960.34;4835617;28;24432;-68
2024/01/30 04:10:18;;;;;;;22.85;12.20;;;3.30;99.90;;;3.17;94.04;101952.59;4830100;28;24515;-69
2024/01/30 04:12:40;;;;;;;20.75;11.90;;;3.30;99.90;;;3.15;94.17;101954.34;4827157;28;24498;-69
2024/01/30 04:15:03;;;;;;;19.08;12.20;;;3.30;99.90;;;3.14;93.83;101954.41;4834025;28;24486;-67
2024/01/30 04:17:25;;;;;;;19.13;12.20;;;3.30;99.90;;;3.14;94.05;101967.28;4828713;28;24484;-69
2024/01/30 04:19:47;;;;;;;22.60;12.63;;;3.30;99.90;;;3.11;94.32;101957.88;4829564;28;24456;-69
2024/01/30 04:22:09;;;;;;;20.92;12.65;;;3.30;99.90;;;3.10;94.57;101965.66;4835471;28;25033;-71
2024/01/30 04:24:31;;;;;;;20.25;12.10;;;3.20;99.90;;;3.06;94.94;101951.97;4830859;28;24549;-67
2024/01/30 04:26:53;;;;;;;20.85;11.60;;;3.20;99.90;;;3.06;94.98;101958.88;4832746;28;21168;-70
2024/01/30 04:29:15;;;;;;;21.88;12.30;;;3.20;99.90;;;3.05;94.70;101952.84;4834950;28;25202;-69
2024/01/30 04:31:37;;;;;;;22.48;11.98;;;3.20;99.90;;;3.05;94.61;101954.56;4825280;28;24448;-68
2024/01/30 04:33:59;;;;;;;20.73;11.68;;;3.20;99.90;;;3.02;94.52;101958.06;4835382;28;24523;-69
2024/01/30 04:36:21;;;;;;;17.73;11.27;;;3.20;99.90;;;3.03;94.91;101951.19;4827670;28;24452;-66
2024/01/30 04:38:43;;;;;;;18.55;10.77;;;3.20;99.90;;;3.03;95.20;101954.63;4830673;28;24434;-68
2024/01/30 04:41:05;;;;;;;20.90;11.57;;;3.20;99.90;;;3.01;94.91;101958.09;4835016;28;24467;-69
2024/01/30 04:43:27;;;;;;;17.90;11.10;;;3.10;99.90;;;2.99;94.83;101957.28;4833954;28;25230;-71
2024/01/30 04:45:50;;;;;;;16.87;10.40;;;3.10;99.90;;;2.95;94.23;101959.09;4833329;28;24526;-68
2024/01/30 04:48:11;;;;;;;21.73;11.45;;;3.10;99.90;;;2.95;94.93;101961.66;4835661;28;25078;-68
2024/01/30 04:50:33;;;;;;;19.92;10.82;;;3.10;99.90;;;2.96;94.41;101952.19;4832152;28;24531;-67
2024/01/30 04:52:55;;;;;;;19.45;10.50;;;3.10;99.90;;;2.98;94.28;101965.91;4835402;28;24435;-68
2024/01/30 04:55:17;;;;;;;17.52;10.48;;;3.10;99.90;;;3.00;95.00;101959.00;4834117;28;24432;-68
2024/01/30 04:57:42;;;;;;;18.50;10.45;;;3.10;99.90;;;3.00;94.99;101957.25;4825007;28;24651;-68
2024/01/30 05:00:06;;;;;;;18.98;10.90;;;3.10;99.90;;;3.01;95.39;101956.38;4829616;28;24547;-67
2024/01/30 05:02:28;;;;;;;16.03;10.23;;;3.10;99.90;;;3.02;95.34;101968.38;4829297;28;24437;-67
2024/01/30 05:04:49;;;;;;;15.15;10.15;;;3.20;99.90;;;3.02;95.25;101960.63;4830671;28;24428;-69
2024/01/30 05:07:12;;;;;;;16.17;9.68;;;3.10;99.90;;;3.01;95.27;101956.38;4834911;28;24432;-68
2024/01/30 05:09:33;;;;;;;13.80;9.43;;;3.20;99.90;;;3.03;95.07;101959.78;4829975;28;24925;-68
2024/01/30 05:11:55;;;;;;;14.40;9.00;;;3.10;99.90;;;3.03;95.25;101967.50;4828914;28;24490;-67
2024/01/30 05:14:17;;;;;;;15.80;9.90;;;3.20;99.90;;;3.04;95.59;101965.78;4826467;28;24432;-69
2024/01/30 05:16:39;;;;;;;16.15;9.57;;;3.20;99.90;;;3.06;96.03;101969.19;4833625;28;24511;-68
2024/01/30 05:19:01;;;;;;;14.15;9.35;;;3.20;99.90;;;3.08;96.05;101968.28;4834828;28;24567;-67
2024/01/30 05:21:24;;;;;;;16.98;9.88;;;3.20;99.90;;;3.10;96.29;101969.09;4829326;28;24499;-70
2024/01/30 05:23:46;;;;;;;15.63;9.47;;;3.20;99.90;;;3.13;95.97;101970.75;4829131;28;24524;-68
2024/01/30 05:26:08;;;;;;;14.05;8.60;;;3.30;99.90;;;3.13;96.23;101963.03;4836303;28;24993;-70
2024/01/30 05:28:30;;;;;;;13.23;8.80;;;3.30;99.90;;;3.18;96.15;101963.75;4830188;28;24839;-70
2024/01/30 05:30:52;;;;;;;14.20;9.15;;;3.30;99.90;;;3.21;96.27;101973.19;4838291;28;24966;-69
2024/01/30 05:33:14;;;;;;;12.88;8.30;;;3.30;99.90;;;3.23;96.26;101967.09;4832582;28;24514;-69
2024/01/30 05:35:36;;;;;;;14.15;8.05;;;3.40;99.90;;;3.29;96.28;101972.13;4837759;28;24482;-69
2024/01/30 05:37:58;;;;;;;15.38;7.70;;;3.40;99.90;;;3.29;97.07;101968.69;4835593;28;24628;-67
2024/01/30 05:40:20;;;;;;;12.07;7.40;;;3.40;99.90;;;3.30;97.68;101973.00;4820810;28;24577;-68
2024/01/30 05:42:43;;;;;;;13.52;8.00;;;3.50;99.90;;;3.29;97.79;101972.13;4831883;28;24495;-69
2024/01/30 05:45:05;;;;;;;14.27;8.05;;;3.50;99.90;;;3.27;98.53;101962.72;4837243;28;21118;-70
2024/01/30 05:47:27;;;;;;;13.60;8.15;;;3.40;99.90;;;3.31;98.08;101969.53;4833127;28;24519;-67
2024/01/30 05:49:49;;;;;;;12.52;7.47;;;3.40;99.90;;;3.32;98.55;101966.06;4838364;28;24432;-68
2024/01/30 05:52:11;;;;;;;12.65;7.68;;;3.50;99.90;;;3.34;98.79;101974.63;4837846;28;24989;-68
2024/01/30 05:54:33;;;;;;;11.50;6.93;;;3.50;99.90;;;3.36;98.86;101972.84;4828503;28;24518;-68
2024/01/30 05:56:55;;;;;;;11.93;7.50;;;3.50;99.90;;;3.41;99.31;101974.44;4837624;28;24519;-69
2024/01/30 05:59:17;;;;;;;13.13;7.80;;;3.50;99.90;;;3.42;99.46;101980.47;4837144;28;24541;-69
2024/01/30 06:01:46;;;;;;;13.35;7.68;;;3.60;99.90;;;3.45;99.39;101978.66;4828670;28;24997;-68
2024/01/30 06:04:09;;;;;;;12.18;7.60;;;3.60;99.90;;;3.43;99.34;101977.84;4836430;28;24432;-68
2024/01/30 06:06:31;;;;;;;11.07;7.20;;;3.60;99.90;;;3.50;99.37;101975.97;4836843;28;24432;-68
2024/01/30 06:08:55;;;;;;;10.43;7.15;;;3.60;99.90;;;3.52;99.76;101980.25;4837609;28;24435;-68
2024/01/30 06:11:17;;;;;;;10.68;7.10;;;3.70;99.90;;;3.52;99.74;101980.25;4829462;28;24548;-67
2024/01/30 06:13:39;;;;;;;10.20;7.47;;;3.70;99.90;;;3.53;99.46;101974.22;4835074;28;24442;-68
2024/01/30 06:16:00;;;;;;;11.77;6.97;;;3.70;99.90;;;3.53;99.81;101975.94;4829732;28;24503;-68
2024/01/30 06:18:22;;;;;;;10.95;6.97;;;3.70;99.90;;;3.59;99.21;101975.78;4835866;28;24432;-68
2024/01/30 06:20:44;;;;;;;12.70;7.18;;;3.70;99.90;;;3.54;99.90;101972.44;4834214;28;24552;-67
2024/01/30 06:23:06;;;;;;;10.77;6.50;;;3.70;99.90;;;3.53;99.94;101978.50;4826324;28;24475;-68
2024/01/30 06:25:28;;;;;;;11.48;7.03;;;3.70;99.90;;;3.55;99.83;101979.31;4836408;28;24494;-68
2024/01/30 06:27:50;;;;;;;13.48;7.85;;;3.70;99.90;;;3.60;100.00;101977.50;4832148;28;24795;-67
2024/01/30 06:30:13;;;;;;;13.38;7.32;;;3.80;99.90;;;3.61;99.70;101974.03;4834262;28;24431;-67
2024/01/30 06:32:36;;;;;;;13.68;7.15;;;3.80;99.90;;;3.63;99.72;101977.41;4822344;28;24491;-66
2024/01/30 06:34:58;;;;;;;11.07;7.22;;;3.80;99.90;;;3.61;99.53;101972.31;4836362;28;24520;-66
2024/01/30 06:37:20;;;;;;;10.70;7.10;;;3.80;99.90;;;3.63;99.95;101978.28;4836063;28;24523;-68
2024/01/30 06:39:42;;;;;;;11.68;7.20;;;3.80;99.90;;;3.63;99.65;101972.25;4829587;28;25083;-67
2024/01/30 06:42:05;;;;;;;10.38;7.10;;;3.80;99.90;;;3.67;99.40;101973.88;4835456;28;24523;-68
2024/01/30 06:44:26;;;;;;;11.20;7.40;;;3.80;99.90;;;3.70;99.46;101979.84;4824702;28;24447;-68
2024/01/30 06:46:51;;;;;;;13.05;7.55;;;3.80;99.90;;;3.69;99.28;101972.97;4813988;28;24444;-65
2024/01/30 06:49:13;;;;;;;13.98;7.70;;;3.80;99.90;;;3.64;99.73;101973.97;4819017;28;25309;-66
2024/01/30 06:51:35;;;;;;;10.45;7.30;;;3.80;99.90;;;3.66;99.46;101975.59;4828951;28;24444;-67
2024/01/30 06:53:57;;;;;;;11.40;7.75;;;3.80;99.90;;;3.68;99.80;101979.03;4836330;28;24487;-67
2024/01/30 06:56:20;;;;;;;12.50;7.68;;;3.80;99.90;;;3.70;99.58;101982.44;4830535;28;24480;-67
2024/01/30 06:58:42;;;;;;;12.18;7.70;;;3.80;99.90;;;3.75;99.56;101983.16;4837272;28;24435;-67
2024/01/30 07:01:04;;;;;;;12.75;7.63;;;3.80;99.90;;;3.75;99.58;101977.13;4826706;28;24557;-68
2024/01/30 07:03:26;;;;;;;11.20;7.40;;;3.80;99.90;;;3.74;99.62;101981.47;4828199;28;25046;-68
2024/01/30 07:05:48;;;;;;;12.25;7.20;;;3.90;99.90;;;3.77;99.09;101980.53;4829097;28;25013;-69
2024/01/30 07:08:10;;;;;;;10.80;7.00;;;3.90;99.90;;;3.79;99.13;101981.38;4831955;28;24438;-67
2024/01/30 07:10:33;;;;;;;10.75;6.70;;;3.90;99.90;;;3.75;99.02;101978.00;4835306;28;24506;-68
2024/01/30 07:12:54;;;;;;;12.85;7.50;;;3.90;99.90;;;3.67;99.51;101979.03;4828640;28;24571;-67
2024/01/30 07:15:19;;;;;;;12.88;7.63;;;3.90;99.90;;;3.76;99.20;101984.00;4832135;28;24429;-67
2024/01/30 07:17:41;;;;;;;13.55;7.60;;;3.80;99.90;;;3.81;99.11;101982.19;4827778;28;20789;-68
2024/01/30 07:20:04;;;;;;;13.97;7.70;;;3.90;99.90;;;3.80;99.12;101981.31;4836032;28;24928;-67
2024/01/30 07:22:26;;;;;;;12.80;7.80;;;3.90;99.90;;;3.83;99.25;101977.84;4834052;28;25047;-68
2024/01/30 07:24:49;;;;;;;11.20;7.40;;;3.90;99.90;;;3.87;99.15;101982.03;4836469;28;24795;-68
2024/01/30 07:27:11;;;;;;;12.10;7.50;;;4.00;99.90;;;3.93;98.70;101987.06;4835878;28;24837;-68
2024/01/30 07:29:33;;;;;;;14.68;8.10;;;4.00;99.90;;;3.95;98.46;101990.44;4836278;28;24439;-66
2024/01/30 07:31:55;;;;;;;13.15;7.95;;;4.00;99.90;;;3.98;98.48;101981.78;4823441;28;21150;-69
2024/01/30 07:34:17;;;;;;;13.60;8.02;;;4.10;99.90;;;4.01;98.25;101982.56;4832875;28;24427;-70
2024/01/30 07:36:39;;;;;;;13.98;7.90;;;4.10;99.90;;;4.04;98.33;101992.84;4822483;28;25136;-67
2024/01/30 07:39:01;;;;;;;15.55;8.40;;;4.10;99.90;;;4.14;98.57;101990.88;4827822;28;24520;-68
2024/01/30 07:41:25;;;;;;;15.27;8.45;;;4.20;99.90;;;4.22;97.74;101987.22;4835166;28;24866;-68
2024/01/30 07:43:47;;;;;;;13.63;7.82;;;4.20;99.90;;;4.33;97.47;101998.13;4830971;28;20787;-68
2024/01/30 07:46:09;;;;;;;14.25;8.52;;;4.40;99.90;;;4.49;96.98;101999.44;4830993;28;24511;-69
2024/01/30 07:48:31;;;;;;;13.80;7.90;;;4.50;99.90;;;4.64;96.60;102006.81;4835235;28;20767;-68
2024/01/30 07:50:53;;;;;;;12.20;8.20;;;4.60;99.90;;;4.73;95.61;102003.13;4833342;28;24487;-67
2024/01/30 07:53:15;;;;;;;13.90;8.10;;;4.70;99.90;;;4.89;94.10;102006.19;4833439;28;20965;-70
2024/01/30 07:55:36;;;;;;;13.23;8.25;;;4.80;99.90;;;5.03;94.06;102004.06;4835307;28;24544;-70
2024/01/30 07:57:59;;;;;;;13.63;8.88;;;5.00;99.90;;;5.23;92.84;102010.38;4832581;28;20782;-70
2024/01/30 08:00:21;;;;;;;13.93;8.40;;;5.10;99.90;;;5.45;92.31;102014.03;4833384;28;24499;-68
2024/01/30 08:02:43;;;;;;;13.45;7.70;;;5.30;99.90;;;5.72;91.18;102019.31;4829519;28;24538;-66
2024/01/30 08:05:05;;;;;;;13.60;8.30;;;5.50;99.90;;;5.99;89.41;102019.34;4834694;28;24519;-68
2024/01/30 08:07:29;;;;;;;13.40;8.07;;;5.70;99.90;;;6.22;87.58;102016.88;4831762;28;24452;-68
2024/01/30 08:09:51;;;;;;;14.25;7.95;;;6.00;99.90;;;6.58;86.77;102027.78;4834818;28;24438;-68
2024/01/30 08:12:13;;;;;;;11.37;7.30;;;6.30;99.90;;;6.99;84.89;102023.78;4834512;28;25084;-68
2024/01/30 08:14:35;;;;;;;12.98;7.90;;;6.60;99.90;;;7.69;81.47;102029.84;4827195;28;24452;-69
2024/01/30 08:16:57;;;;;;;12.00;7.90;;;7.10;99.90;;;8.51;76.96;102025.72;4835558;28;24463;-68
2024/01/30 08:19:19;;;;;;;14.30;8.07;;;7.80;99.90;;;9.00;73.74;102026.22;4831651;28;24429;-70
2024/01/30 08:21:41;;;;;;;13.55;8.00;;;8.30;99.90;;;9.27;72.02;102025.88;4828289;28;25018;-69
2024/01/30 08:24:04;;;;;;;13.73;8.15;;;8.60;99.90;;;9.28;72.16;102022.34;4835061;28;24432;-69
2024/01/30 08:26:26;;;;;;;12.93;8.45;;;8.80;99.90;;;8.90;72.37;102027.56;4830882;28;24435;-65
2024/01/30 08:28:48;;;;;;;13.70;8.07;;;8.80;99.90;;;8.92;72.75;102021.34;4828353;28;24513;-67
2024/01/30 08:31:12;;;;;;;13.50;8.00;;;8.70;99.90;;;8.96;72.37;102028.13;4834691;28;24528;-68
2024/01/30 08:33:34;;;;;;;13.40;8.55;;;8.80;99.90;;;8.63;72.86;102026.09;4828487;28;25014;-67
2024/01/30 08:35:55;;;;;;;13.73;8.30;;;8.50;99.90;;;8.31;74.62;102023.06;4830842;28;24452;-69
2024/01/30 08:38:17;;;;;;;14.50;9.02;;;8.30;99.90;;;7.93;75.72;102028.06;4834934;28;24433;-68
2024/01/30 08:40:39;;;;;;;15.82;8.80;;;7.90;99.90;;;7.58;77.40;102017.25;4834527;28;24448;-67
2024/01/30 08:43:02;;;;;;;14.18;8.60;;;7.70;99.90;;;7.25;79.25;102013.31;4832789;28;24452;-68
2024/01/30 08:45:24;;;;;;;12.57;8.35;;;7.30;99.90;;;6.92;81.04;102009.34;4834399;28;24799;-69
2024/01/30 08:47:46;;;;;;;13.38;8.70;;;7.10;99.90;;;6.83;81.77;102020.91;4828567;28;24448;-69
2024/01/30 08:50:08;;;;;;;16.25;8.60;;;6.90;99.90;;;6.71;82.90;102023.03;4834482;28;24528;-67
2024/01/30 08:52:30;;;;;;;13.73;8.73;;;6.80;99.90;;;6.53;82.83;102018.47;4819210;28;25029;-68
2024/01/30 08:54:52;;;;;;;14.98;8.90;;;6.60;99.90;;;6.29;84.92;102025.31;4834379;28;25977;-67
2024/01/30 08:57:14;;;;;;;14.90;8.13;;;6.40;99.90;;;6.21;85.53;102027.31;4835054;28;24508;-67
2024/01/30 08:59:36;;;;;;;13.40;8.15;;;6.30;99.90;;;6.15;85.85;102024.91;4835381;28;24443;-68
2024/01/30 09:01:59;;;;;;;17.13;8.90;;;6.20;99.90;;;6.11;86.43;102031.91;4835104;28;24893;-67
2024/01/30 09:04:33;;;;;;;15.98;8.90;;;6.10;99.90;;;6.08;86.44;102024.25;4837748;28;24487;-68
2024/01/30 09:06:55;;;;;;;14.20;8.38;;;6.10;99.90;;;6.02;86.50;102031.38;4827986;28;24441;-68
2024/01/30 09:09:17;;;;;;;14.57;9.27;;;6.10;99.90;;;5.93;87.77;102019.53;4834847;28;24436;-67
2024/01/30 09:11:39;;;;;;;15.55;9.07;;;6.00;99.90;;;5.94;88.05;102023.81;4841844;28;24477;-67
2024/01/30 09:14:01;;;;;;;18.85;10.38;;;6.00;99.90;;;5.96;88.55;102032.38;4820384;28;25084;-68
2024/01/30 09:16:23;;;;;;;18.00;10.05;;;6.00;99.90;;;5.93;88.64;102027.31;4836485;28;24528;-68
2024/01/30 09:18:45;;;;;;;17.40;10.15;;;6.00;99.90;;;6.04;88.18;102032.16;4833548;28;24452;-68
2024/01/30 09:21:07;;;;;;;18.98;10.10;;;6.00;99.90;;;6.15;87.61;102020.56;4837975;28;24463;-68
2024/01/30 09:23:29;;;;;;;18.38;9.88;;;6.10;99.90;;;6.31;88.12;102033.03;4828822;28;24498;-65
2024/01/30 09:25:51;;;;;;;17.85;10.10;;;6.20;99.90;;;6.55;86.54;102040.03;4837697;28;24431;-67
2024/01/30 09:28:13;;;;;;;20.63;9.38;;;6.40;99.90;;;6.73;85.57;102035.06;4835295;28;24448;-68
2024/01/30 09:30:35;;;;;;;16.17;9.82;;;6.50;99.90;;;6.96;85.81;102036.88;4836704;28;24535;-67
2024/01/30 09:32:57;;;;;;;15.90;9.88;;;6.70;99.90;;;7.12;84.78;102027.63;4828026;28;24559;-68
2024/01/30 09:35:19;;;;;;;16.93;9.50;;;6.90;99.90;;;7.25;83.42;102035.84;4836865;28;24979;-67
2024/01/30 09:37:42;;;;;;;15.63;9.60;;;7.00;99.90;;;7.41;82.40;102035.22;4837538;28;24436;-68
2024/01/30 09:40:05;;;;;;;16.15;9.60;;;7.20;99.90;;;7.51;81.88;102036.59;4835356;28;24455;-67
2024/01/30 09:42:38;;;;;;;18.30;9.60;;;7.30;99.90;;;7.68;81.43;102039.41;4835744;28;25024;-67
2024/01/30 09:45:03;;;;;;;19.15;10.43;;;7.40;99.90;;;7.81;80.89;102037.19;4831417;28;24456;-67
2024/01/30 09:47:26;;;;;;;18.57;10.00;;;7.60;99.90;;;8.09;80.63;102040.38;4836863;28;24810;-69
2024/01/30 09:49:49;;;;;;;18.67;10.30;;;7.70;99.90;;;8.54;78.33;102045.53;4830506;28;25068;-68
2024/01/30 09:52:11;;;;;;;16.33;9.95;;;8.10;99.90;;;9.03;76.36;102042.56;4812063;28;25076;-68
2024/01/30 09:54:35;;;;;;;18.42;10.50;;;8.50;99.90;;;9.19;75.00;102046.19;4834899;28;24976;-65